Time;durP1;ratioP1;P1;durP2;ratioP2;P2;SDS_P1;SDS_P2;PMS_P1;PMS_P2;Temp;Humidity;BMP_temperature;BMP_pressure;BME280_temperature;BME280_humidity;BME280_pressure;Samples;Min_cycle;Max_cycle;Signal;HPM_P1;HPM_P2
2023/12/27 00:00:15;;;;;;;6.00;3.90;;;16.00;63.90;;;;;;5006194;28;20451;-76
2023/12/27 00:02:45;;;;;;;4.30;3.30;;;16.00;63.90;;;;;;5007737;28;21059;-76
2023/12/27 00:05:15;;;;;;;4.83;3.10;;;16.00;64.00;;;;;;5013351;28;20472;-76
2023/12/27 00:07:43;;;;;;;8.13;3.40;;;16.00;64.00;;;;;;5032452;22;20495;-76
2023/12/27 00:10:11;;;;;;;3.13;2.83;;;16.00;63.90;;;;;;5030244;28;20451;-76
2023/12/27 00:12:41;;;;;;;4.13;3.30;;;16.00;64.20;;;;;;5027536;28;20467;-76
2023/12/27 00:15:09;;;;;;;5.20;3.20;;;16.00;63.80;;;;;;5031670;28;20504;-76
2023/12/27 00:17:37;;;;;;;5.40;3.13;;;16.00;63.90;;;;;;5031818;28;20462;-76
2023/12/27 00:20:06;;;;;;;4.93;2.97;;;15.90;63.70;;;;;;5031557;28;20589;-75
2023/12/27 00:22:34;;;;;;;4.47;3.10;;;15.90;63.80;;;;;;5028997;28;20498;-75
2023/12/27 00:25:02;;;;;;;4.27;3.30;;;15.90;63.80;;;;;;5031455;28;20482;-75
2023/12/27 00:27:30;;;;;;;3.73;3.10;;;15.90;63.50;;;;;;5031642;28;20474;-76
2023/12/27 00:29:59;;;;;;;4.30;3.13;;;15.90;63.60;;;;;;5033968;28;20431;-75
2023/12/27 00:32:27;;;;;;;4.50;3.40;;;15.90;63.10;;;;;;5025411;28;20471;-75
2023/12/27 00:34:55;;;;;;;6.10;3.30;;;15.80;63.60;;;;;;5032440;28;20475;-75
2023/12/27 00:37:23;;;;;;;4.50;3.40;;;15.90;63.70;;;;;;5030019;28;20520;-75
2023/12/27 00:39:51;;;;;;;6.40;3.00;;;15.90;63.60;;;;;;5029084;28;20475;-76
2023/12/27 00:42:19;;;;;;;4.60;3.37;;;15.90;63.20;;;;;;5031647;28;20495;-76
2023/12/27 00:44:48;;;;;;;5.43;3.03;;;15.90;63.60;;;;;;5030731;28;20535;-76
2023/12/27 00:47:17;;;;;;;4.93;3.70;;;15.80;63.30;;;;;;5033937;28;20533;-77
2023/12/27 00:49:45;;;;;;;7.40;3.40;;;15.80;63.30;;;;;;5030918;28;20459;-76
2023/12/27 00:52:13;;;;;;;3.27;3.00;;;15.80;63.20;;;;;;5030042;28;20447;-76
2023/12/27 00:54:43;;;;;;;4.80;3.27;;;15.80;63.30;;;;;;5033178;28;20455;-76
2023/12/27 00:57:11;;;;;;;3.77;2.67;;;15.80;63.30;;;;;;5032116;28;20468;-77
2023/12/27 00:59:39;;;;;;;9.73;3.77;;;15.80;63.40;;;;;;5028848;28;20482;-77
2023/12/27 01:02:08;;;;;;;6.03;3.77;;;15.80;63.50;;;;;;5028670;28;20479;-75
2023/12/27 01:04:38;;;;;;;5.17;3.43;;;15.80;63.40;;;;;;5033958;28;20538;-76
2023/12/27 01:07:06;;;;;;;8.10;3.87;;;15.70;63.20;;;;;;5032936;28;20483;-75
2023/12/27 01:09:34;;;;;;;5.63;3.40;;;15.70;63.50;;;;;;5031439;28;20448;-75
2023/12/27 01:12:03;;;;;;;5.20;3.30;;;15.70;63.30;;;;;;5032083;28;20447;-76
2023/12/27 01:14:31;;;;;;;5.73;3.07;;;15.70;63.60;;;;;;5032927;28;20454;-75
2023/12/27 01:16:59;;;;;;;5.17;3.50;;;15.70;63.30;;;;;;5032219;28;20550;-75
2023/12/27 01:19:27;;;;;;;9.23;3.10;;;15.70;63.70;;;;;;5027950;28;20495;-75
2023/12/27 01:21:56;;;;;;;6.83;3.53;;;15.70;63.50;;;;;;5028636;28;20538;-76
2023/12/27 01:24:24;;;;;;;4.20;2.80;;;15.70;63.10;;;;;;5033786;28;20457;-75
2023/12/27 01:26:52;;;;;;;5.83;3.40;;;15.70;63.30;;;;;;5033012;28;20467;-74
2023/12/27 01:29:20;;;;;;;3.80;3.17;;;15.60;63.50;;;;;;5033523;28;20444;-75
2023/12/27 01:31:48;;;;;;;7.30;3.70;;;15.60;63.20;;;;;;5033853;28;20463;-75
2023/12/27 01:34:18;;;;;;;6.10;3.57;;;15.60;63.60;;;;;;5033662;28;20534;-75
2023/12/27 01:36:50;;;;;;;4.00;2.80;;;15.60;63.60;;;;;;5032809;28;20966;-76
2023/12/27 01:39:20;;;;;;;4.93;3.60;;;15.60;63.10;;;;;;5034974;28;20475;-76
2023/12/27 01:41:48;;;;;;;8.07;3.10;;;15.60;63.00;;;;;;5034693;28;20443;-76
2023/12/27 01:44:16;;;;;;;5.33;3.50;;;15.60;63.30;;;;;;5034214;28;20868;-76
2023/12/27 01:46:44;;;;;;;5.20;3.50;;;15.50;63.30;;;;;;5033652;28;20563;-75
2023/12/27 01:49:12;;;;;;;9.00;3.53;;;15.50;63.10;;;;;;5032878;28;20528;-77
2023/12/27 01:51:40;;;;;;;7.57;3.50;;;15.50;63.50;;;;;;5028531;28;20502;-76
2023/12/27 01:54:08;;;;;;;4.00;3.57;;;15.50;63.00;;;;;;5033537;28;20510;-76
2023/12/27 01:56:38;;;;;;;5.23;3.40;;;15.50;63.60;;;;;;5033441;28;20451;-76
2023/12/27 01:59:06;;;;;;;8.47;3.67;;;15.50;63.40;;;;;;5035500;28;20439;-75
2023/12/27 02:01:33;;;;;;;5.67;3.30;;;15.50;63.20;;;;;;5041080;28;20446;-76
2023/12/27 02:04:01;;;;;;;6.03;3.30;;;15.50;63.50;;;;;;5033555;28;20440;-76
2023/12/27 02:06:29;;;;;;;4.63;3.10;;;15.50;63.50;;;;;;5033116;28;20482;-76
2023/12/27 02:08:57;;;;;;;4.50;3.33;;;15.50;63.20;;;;;;5033131;28;20471;-76
2023/12/27 02:11:25;;;;;;;6.10;3.40;;;15.50;63.40;;;;;;5032218;28;20447;-76
2023/12/27 02:13:55;;;;;;;9.23;3.40;;;15.50;62.90;;;;;;5032232;28;20459;-76
2023/12/27 02:16:22;;;;;;;4.83;3.47;;;15.50;63.30;;;;;;5032589;28;20951;-76
2023/12/27 02:18:51;;;;;;;3.83;3.10;;;15.50;62.90;;;;;;5032503;28;20447;-76
2023/12/27 02:21:18;;;;;;;4.60;3.10;;;15.40;63.10;;;;;;5033048;28;20428;-76
2023/12/27 02:23:47;;;;;;;5.07;3.10;;;15.50;63.00;;;;;;5032558;28;20445;-76
2023/12/27 02:26:16;;;;;;;6.47;3.33;;;15.40;63.10;;;;;;5030956;28;20487;-76
2023/12/27 02:28:44;;;;;;;7.10;2.93;;;15.40;63.30;;;;;;5032128;28;20507;-76
2023/12/27 02:31:12;;;;;;;4.43;3.13;;;15.40;63.00;;;;;;5033001;28;20566;-76
2023/12/27 02:33:59;;;;;;;4.13;3.37;;;15.40;62.70;;;;;;5088978;27;20538;-75
2023/12/27 02:36:27;;;;;;;6.90;3.67;;;15.40;63.00;;;;;;5089023;28;20437;-75
2023/12/27 02:38:55;;;;;;;8.10;3.97;;;15.30;62.60;;;;;;5088650;28;20432;-75
2023/12/27 02:41:24;;;;;;;5.77;3.33;;;15.30;62.90;;;;;;5088928;28;20433;-75
2023/12/27 02:43:51;;;;;;;4.57;3.13;;;15.30;63.30;;;;;;5088694;28;20518;-75
2023/12/27 02:46:20;;;;;;;5.47;3.23;;;15.30;62.70;;;;;;5089053;28;20502;-77
2023/12/27 02:48:47;;;;;;;3.20;2.90;;;15.30;63.10;;;;;;5089070;28;20494;-75
2023/12/27 02:51:17;;;;;;;4.27;3.17;;;15.30;62.80;;;;;;5089560;28;20437;-75
2023/12/27 02:53:45;;;;;;;7.23;4.30;;;15.20;62.60;;;;;;5084019;28;20557;-76
2023/12/27 02:56:13;;;;;;;11.30;5.90;;;15.20;62.90;;;;;;5088933;28;20486;-76
2023/12/27 02:58:40;;;;;;;17.77;10.17;;;15.30;62.90;;;;;;5088655;28;20486;-76
2023/12/27 03:01:08;;;;;;;17.23;9.13;;;15.20;62.50;;;;;;5083019;28;20481;-75
2023/12/27 03:03:37;;;;;;;17.50;8.80;;;15.20;62.90;;;;;;5068084;28;20471;-76
2023/12/27 03:06:06;;;;;;;18.03;10.50;;;15.20;63.00;;;;;;5068011;28;20438;-76
2023/12/27 03:08:37;;;;;;;21.80;12.40;;;15.20;62.80;;;;;;5067887;28;20494;-76
2023/12/27 03:11:06;;;;;;;22.50;12.80;;;15.20;62.50;;;;;;5068327;28;20442;-76
2023/12/27 03:13:34;;;;;;;25.33;13.07;;;15.10;62.60;;;;;;5067733;28;20469;-75
2023/12/27 03:16:05;;;;;;;26.77;13.43;;;15.20;62.80;;;;;;5068049;28;20929;-76
2023/12/27 03:18:33;;;;;;;23.77;13.37;;;15.20;62.70;;;;;;5083875;28;20472;-76
2023/12/27 03:21:01;;;;;;;27.53;14.90;;;15.20;62.80;;;;;;5087654;28;20487;-76
2023/12/27 03:23:29;;;;;;;24.63;13.97;;;15.10;62.60;;;;;;5085242;28;20441;-76
2023/12/27 03:25:58;;;;;;;28.90;15.00;;;15.10;62.80;;;;;;5085756;28;20461;-75
2023/12/27 03:28:26;;;;;;;25.73;13.60;;;15.10;62.30;;;;;;5087955;28;20502;-76
2023/12/27 03:30:54;;;;;;;26.63;14.70;;;15.10;62.60;;;;;;5087635;28;20440;-76
2023/12/27 03:33:23;;;;;;;23.80;13.80;;;15.10;62.60;;;;;;5082346;28;20569;-76
2023/12/27 03:35:51;;;;;;;28.33;15.97;;;15.10;62.40;;;;;;5086998;28;20433;-75
2023/12/27 03:38:20;;;;;;;26.93;15.20;;;15.10;62.60;;;;;;5087332;28;20555;-75
2023/12/27 03:40:47;;;;;;;28.30;13.73;;;15.10;62.60;;;;;;5087587;28;20437;-75
2023/12/27 03:43:17;;;;;;;24.37;14.43;;;15.10;62.00;;;;;;5086518;28;20502;-75
2023/12/27 03:45:45;;;;;;;24.60;13.67;;;15.00;62.30;;;;;;5074016;28;20500;-74
2023/12/27 03:48:13;;;;;;;26.63;15.20;;;15.00;62.70;;;;;;5073561;28;20544;-75
2023/12/27 03:50:41;;;;;;;25.20;14.43;;;15.00;62.60;;;;;;5073649;28;20543;-76
2023/12/27 03:53:09;;;;;;;31.27;16.13;;;15.00;62.40;;;;;;5074401;28;20497;-76
2023/12/27 03:55:37;;;;;;;29.17;14.93;;;15.00;62.30;;;;;;5074477;28;20465;-76
2023/12/27 03:58:05;;;;;;;24.57;13.93;;;15.00;62.40;;;;;;5074407;28;20540;-76
2023/12/27 04:00:34;;;;;;;26.80;14.40;;;14.90;62.40;;;;;;5074374;28;20441;-76
2023/12/27 04:03:02;;;;;;;28.77;14.07;;;15.00;62.50;;;;;;5074757;28;20509;-76
2023/12/27 04:05:30;;;;;;;27.90;14.90;;;15.00;62.30;;;;;;5073172;28;20540;-76
2023/12/27 04:07:58;;;;;;;25.07;13.53;;;14.90;62.00;;;;;;5069316;28;20461;-76
2023/12/27 04:10:31;;;;;;;25.07;14.57;;;14.90;62.40;;;;;;5074015;28;20438;-76
2023/12/27 04:12:59;;;;;;;25.17;13.10;;;14.90;62.10;;;;;;5073883;28;20453;-76
2023/12/27 04:15:27;;;;;;;27.50;14.23;;;14.90;62.40;;;;;;5073853;28;20869;-75
2023/12/27 04:17:57;;;;;;;25.33;13.17;;;14.90;62.20;;;;;;5074223;28;20458;-75
2023/12/27 04:20:25;;;;;;;24.30;13.53;;;14.90;62.10;;;;;;5073501;28;20446;-76
2023/12/27 04:22:53;;;;;;;20.43;12.13;;;14.90;62.20;;;;;;5056536;28;20443;-75
2023/12/27 04:25:21;;;;;;;23.00;13.40;;;14.90;62.30;;;;;;5053896;28;20450;-75
2023/12/27 04:27:49;;;;;;;24.50;12.67;;;14.90;62.10;;;;;;5053466;28;20463;-75
2023/12/27 04:30:17;;;;;;;23.00;12.70;;;14.90;62.00;;;;;;5053163;28;20542;-75
2023/12/27 04:32:45;;;;;;;25.80;12.23;;;14.80;62.30;;;;;;5060320;28;20453;-76
2023/12/27 04:35:15;;;;;;;21.73;11.80;;;14.90;62.30;;;;;;5074091;28;20444;-76
2023/12/27 04:37:42;;;;;;;23.30;12.20;;;14.80;62.10;;;;;;5073705;28;20461;-76
2023/12/27 04:40:11;;;;;;;19.90;10.90;;;14.80;62.30;;;;;;5060946;28;20453;-75
2023/12/27 04:42:39;;;;;;;20.70;11.63;;;14.80;62.20;;;;;;5053417;28;20964;-76
2023/12/27 04:45:08;;;;;;;15.40;9.67;;;14.80;62.00;;;;;;5053477;28;20482;-75
2023/12/27 04:47:36;;;;;;;21.20;11.17;;;14.80;62.40;;;;;;5053761;28;20458;-75
2023/12/27 04:50:05;;;;;;;17.67;9.67;;;14.80;62.30;;;;;;5054512;28;20446;-75
2023/12/27 04:52:35;;;;;;;17.53;9.73;;;14.80;61.90;;;;;;5055521;28;20447;-76
2023/12/27 04:55:03;;;;;;;17.93;10.10;;;14.80;62.00;;;;;;5055572;28;20462;-75
2023/12/27 04:57:31;;;;;;;21.13;11.10;;;14.80;62.10;;;;;;5073168;28;20507;-76
2023/12/27 04:59:59;;;;;;;16.77;9.10;;;14.80;62.30;;;;;;5072361;28;20438;-76
2023/12/27 05:02:27;;;;;;;17.20;10.00;;;14.80;62.20;;;;;;5061060;28;20454;-75
2023/12/27 05:04:55;;;;;;;18.47;9.90;;;14.80;62.10;;;;;;5069966;28;20500;-76
2023/12/27 05:07:23;;;;;;;15.90;9.63;;;14.80;62.90;;;;;;5058788;28;21111;-75
2023/12/27 05:09:52;;;;;;;15.23;8.87;;;14.80;61.80;;;;;;5063395;28;20444;-75
2023/12/27 05:12:20;;;;;;;13.60;8.50;;;14.70;62.40;;;;;;5052860;28;20553;-75
2023/12/27 05:14:48;;;;;;;16.53;8.53;;;14.80;62.50;;;;;;5053500;28;20505;-76
2023/12/27 05:17:16;;;;;;;14.03;7.60;;;14.80;62.20;;;;;;5054577;28;20462;-76
2023/12/27 05:19:44;;;;;;;14.33;9.03;;;14.80;62.50;;;;;;5053675;28;20503;-76
2023/12/27 05:22:11;;;;;;;15.97;9.00;;;14.80;62.30;;;;;;5048045;28;20558;-75
2023/12/27 05:24:42;;;;;;;15.80;8.57;;;14.80;62.40;;;;;;5062148;28;20461;-76
2023/12/27 05:27:11;;;;;;;12.53;8.03;;;14.80;62.50;;;;;;5072057;28;20475;-76
2023/12/27 05:29:40;;;;;;;14.63;8.17;;;14.80;62.20;;;;;;5054498;28;20485;-76
2023/12/27 05:32:08;;;;;;;13.60;7.67;;;14.80;62.40;;;;;;5053964;28;20482;-77
2023/12/27 05:34:37;;;;;;;12.60;7.30;;;14.80;62.30;;;;;;5061215;28;20501;-76
2023/12/27 05:37:06;;;;;;;13.87;7.83;;;14.80;62.20;;;;;;5063558;28;20515;-77
2023/12/27 05:39:34;;;;;;;11.17;6.93;;;14.70;62.20;;;;;;5060104;28;20546;-76
2023/12/27 05:42:02;;;;;;;11.90;6.80;;;14.80;62.30;;;;;;5064791;28;20445;-74
2023/12/27 05:44:32;;;;;;;11.03;7.20;;;14.70;62.30;;;;;;5063069;28;20824;-74
2023/12/27 05:47:00;;;;;;;13.23;6.70;;;14.70;62.20;;;;;;5059785;28;20531;-74
2023/12/27 05:49:28;;;;;;;15.17;7.20;;;14.70;62.20;;;;;;5059118;28;20449;-74
2023/12/27 05:51:56;;;;;;;12.07;6.40;;;14.70;62.50;;;;;;5060034;28;20489;-74
2023/12/27 05:54:26;;;;;;;12.37;6.70;;;14.70;62.10;;;;;;5059758;28;20552;-75
2023/12/27 05:56:54;;;;;;;11.00;6.47;;;14.70;62.40;;;;;;5059470;28;20509;-74
2023/12/27 05:59:21;;;;;;;9.37;6.10;;;14.70;62.20;;;;;;5051147;28;20485;-75
2023/12/27 06:01:52;;;;;;;12.13;6.53;;;14.70;62.20;;;;;;5064925;28;20491;-74
2023/12/27 06:04:20;;;;;;;11.90;6.67;;;14.70;61.90;;;;;;5052953;28;20434;-75
2023/12/27 06:06:49;;;;;;;9.93;5.93;;;14.70;62.00;;;;;;5068889;28;20465;-77
2023/12/27 06:09:17;;;;;;;9.83;5.60;;;14.70;62.70;;;;;;5071684;28;20438;-78
2023/12/27 06:11:45;;;;;;;8.50;5.57;;;14.70;62.40;;;;;;5072068;28;20449;-77
2023/12/27 06:14:13;;;;;;;9.87;5.50;;;14.70;62.30;;;;;;5072022;28;20523;-77
2023/12/27 06:16:41;;;;;;;11.93;6.53;;;14.70;62.40;;;;;;5066246;28;20564;-76
2023/12/27 06:19:11;;;;;;;9.60;5.50;;;14.70;62.50;;;;;;5064469;28;20529;-75
2023/12/27 06:21:39;;;;;;;9.53;5.70;;;14.70;62.40;;;;;;5057594;28;20447;-74
2023/12/27 06:24:08;;;;;;;9.20;5.77;;;14.70;62.60;;;;;;5051776;28;20480;-74
2023/12/27 06:26:36;;;;;;;9.90;5.20;;;14.70;62.50;;;;;;5051510;28;20442;-76
2023/12/27 06:29:05;;;;;;;9.90;5.90;;;14.70;62.20;;;;;;5055405;28;20503;-74
2023/12/27 06:31:34;;;;;;;6.60;4.60;;;14.60;62.40;;;;;;5070921;28;20445;-74
2023/12/27 06:34:03;;;;;;;8.73;5.37;;;14.70;62.60;;;;;;5071464;28;20470;-75
2023/12/27 06:36:33;;;;;;;6.23;4.77;;;14.70;62.60;;;;;;5066865;28;20453;-75
2023/12/27 06:39:01;;;;;;;7.33;4.80;;;14.70;62.60;;;;;;5070931;28;20583;-75
2023/12/27 06:41:29;;;;;;;7.50;4.80;;;14.70;62.70;;;;;;5071714;28;20454;-77
2023/12/27 06:43:57;;;;;;;8.63;4.40;;;14.70;62.50;;;;;;5071474;28;20499;-74
2023/12/27 06:46:25;;;;;;;7.20;4.87;;;14.70;62.50;;;;;;5071477;28;20445;-75
2023/12/27 06:48:53;;;;;;;5.17;3.97;;;14.70;62.60;;;;;;5069386;28;20540;-75
2023/12/27 06:51:21;;;;;;;7.00;4.57;;;14.70;62.40;;;;;;5071808;28;20441;-75
2023/12/27 06:53:50;;;;;;;4.60;3.90;;;14.70;62.90;;;;;;5071624;28;20472;-78
2023/12/27 06:56:18;;;;;;;7.60;4.47;;;14.70;62.90;;;;;;5071228;28;20433;-75
2023/12/27 06:58:46;;;;;;;7.03;4.30;;;14.70;62.90;;;;;;5071198;28;20549;-75
2023/12/27 07:01:15;;;;;;;5.63;4.10;;;14.70;62.50;;;;;;5070675;28;20475;-76
2023/12/27 07:03:43;;;;;;;7.70;4.50;;;14.70;62.70;;;;;;5070731;28;20861;-76
2023/12/27 07:06:11;;;;;;;7.70;4.53;;;14.70;62.80;;;;;;5056755;28;20459;-75
2023/12/27 07:08:39;;;;;;;8.70;3.70;;;14.70;62.70;;;;;;5067265;28;20472;-76
2023/12/27 07:11:10;;;;;;;7.63;4.20;;;14.70;62.60;;;;;;5071329;28;20506;-77
2023/12/27 07:13:38;;;;;;;5.30;3.70;;;14.70;62.70;;;;;;5071002;28;20470;-76
2023/12/27 07:16:07;;;;;;;6.63;3.73;;;14.70;62.60;;;;;;5071195;28;20509;-75
2023/12/27 07:18:34;;;;;;;4.63;4.10;;;14.70;62.80;;;;;;5070612;28;20457;-77
2023/12/27 07:21:05;;;;;;;8.00;4.40;;;14.60;62.80;;;;;;5072896;28;20536;-75
2023/12/27 07:23:32;;;;;;;6.30;3.67;;;14.60;62.70;;;;;;5075131;28;20449;-76
2023/12/27 07:26:01;;;;;;;6.30;3.70;;;14.60;63.00;;;;;;5075035;28;20542;-77
2023/12/27 07:28:31;;;;;;;5.23;3.30;;;14.60;63.10;;;;;;5073992;28;20584;-76
2023/12/27 07:30:59;;;;;;;4.87;3.80;;;14.70;62.80;;;;;;5074138;28;20501;-75
2023/12/27 07:33:26;;;;;;;8.83;3.57;;;14.70;62.70;;;;;;5074472;28;20448;-76
2023/12/27 07:35:55;;;;;;;4.83;3.47;;;14.70;63.10;;;;;;5073951;28;20476;-76
2023/12/27 07:38:24;;;;;;;5.67;3.50;;;14.70;63.20;;;;;;5063370;28;20508;-76
2023/12/27 07:40:55;;;;;;;5.93;3.60;;;14.70;63.10;;;;;;5073716;28;20469;-76
2023/12/27 07:43:25;;;;;;;3.93;3.27;;;14.70;63.00;;;;;;5074241;28;20538;-75
2023/12/27 07:45:55;;;;;;;3.60;3.07;;;14.70;63.20;;;;;;5073990;28;20893;-76
2023/12/27 07:48:23;;;;;;;5.53;3.13;;;14.70;62.80;;;;;;5073501;28;20465;-76
2023/12/27 07:50:51;;;;;;;2.80;2.50;;;14.70;63.10;;;;;;5074517;28;20458;-76
2023/12/27 07:53:19;;;;;;;4.20;3.30;;;14.70;63.20;;;;;;5073468;28;20457;-76
2023/12/27 07:55:47;;;;;;;5.23;3.50;;;14.70;62.80;;;;;;5073315;28;20560;-76
2023/12/27 07:58:16;;;;;;;6.53;2.90;;;14.70;63.00;;;;;;5064539;28;20508;-76
2023/12/27 08:00:43;;;;;;;3.90;2.73;;;14.70;63.20;;;;;;5063727;28;20489;-76
2023/12/27 08:03:13;;;;;;;5.37;3.13;;;14.70;63.10;;;;;;5078863;28;20997;-77
2023/12/27 08:05:41;;;;;;;4.40;2.53;;;14.70;63.40;;;;;;5081154;28;20438;-75
2023/12/27 08:08:09;;;;;;;3.77;2.60;;;14.70;63.20;;;;;;5076081;28;20462;-77
2023/12/27 08:10:37;;;;;;;3.50;2.67;;;14.70;63.40;;;;;;5073916;28;20437;-76
2023/12/27 08:13:07;;;;;;;3.13;2.83;;;14.70;63.30;;;;;;5074132;28;20519;-75
2023/12/27 08:15:36;;;;;;;5.23;3.00;;;14.70;63.40;;;;;;5074990;28;20469;-76
2023/12/27 08:18:04;;;;;;;2.90;2.70;;;14.70;63.50;;;;;;5061122;28;21046;-75
2023/12/27 08:20:35;;;;;;;3.10;2.63;;;14.80;63.40;;;;;;5054528;28;20533;-77
2023/12/27 08:23:03;;;;;;;4.33;2.70;;;14.80;63.50;;;;;;5054142;28;20478;-76
2023/12/27 08:25:33;;;;;;;3.90;2.83;;;14.80;63.60;;;;;;5054185;28;20438;-76
2023/12/27 08:28:02;;;;;;;2.90;2.60;;;14.80;63.60;;;;;;5053974;28;20467;-76
2023/12/27 08:30:29;;;;;;;4.80;2.57;;;14.70;63.30;;;;;;5053549;28;20493;-75
2023/12/27 08:32:59;;;;;;;2.97;2.70;;;14.80;63.50;;;;;;5054083;28;20525;-76
2023/12/27 08:35:27;;;;;;;3.40;2.80;;;14.80;63.50;;;;;;5053937;28;20474;-76
2023/12/27 08:37:56;;;;;;;4.03;3.03;;;14.80;63.60;;;;;;5053756;28;20553;-76
2023/12/27 08:40:24;;;;;;;3.10;2.47;;;14.80;63.70;;;;;;5048591;28;20482;-76
2023/12/27 08:42:53;;;;;;;4.10;2.80;;;14.90;63.60;;;;;;5053575;28;20494;-76
2023/12/27 08:45:20;;;;;;;4.40;2.50;;;14.90;63.70;;;;;;5053425;28;20469;-76
2023/12/27 08:47:49;;;;;;;2.63;2.33;;;14.90;63.90;;;;;;5053444;28;20466;-76
2023/12/27 08:50:17;;;;;;;4.37;2.53;;;14.90;63.90;;;;;;5056174;28;20952;-76
2023/12/27 08:52:45;;;;;;;2.70;2.47;;;14.90;63.90;;;;;;5073203;28;20465;-76
2023/12/27 08:55:14;;;;;;;4.10;2.47;;;14.90;64.00;;;;;;5073201;28;20499;-75
2023/12/27 08:57:42;;;;;;;3.80;2.67;;;14.90;64.00;;;;;;5068152;28;20466;-75
2023/12/27 09:00:12;;;;;;;3.90;2.40;;;14.90;63.90;;;;;;5071769;28;20960;-75
2023/12/27 09:02:43;;;;;;;3.40;2.77;;;15.00;64.10;;;;;;5065328;28;20460;-76
2023/12/27 09:05:11;;;;;;;2.40;2.20;;;15.00;63.90;;;;;;5073535;28;20454;-76
2023/12/27 09:07:39;;;;;;;4.10;2.27;;;15.00;64.00;;;;;;5058730;28;20553;-76
2023/12/27 09:10:08;;;;;;;2.80;2.20;;;15.00;64.10;;;;;;5057151;28;20477;-75
2023/12/27 09:12:38;;;;;;;4.13;2.30;;;15.10;64.20;;;;;;5069243;28;20434;-77
2023/12/27 09:15:07;;;;;;;3.20;2.60;;;15.00;64.00;;;;;;5066441;28;20426;-76
2023/12/27 09:17:36;;;;;;;2.80;2.60;;;15.10;64.10;;;;;;5062584;28;20477;-76
2023/12/27 09:20:07;;;;;;;3.27;2.40;;;15.00;63.90;;;;;;5061110;28;20451;-76
2023/12/27 09:22:36;;;;;;;4.30;2.27;;;15.10;64.30;;;;;;5071600;28;20441;-76
2023/12/27 09:25:05;;;;;;;3.03;2.30;;;15.10;64.20;;;;;;5072260;28;20924;-76
2023/12/27 09:27:33;;;;;;;4.03;2.40;;;15.10;64.30;;;;;;5065564;28;20477;-76
2023/12/27 09:30:02;;;;;;;3.53;2.50;;;15.20;64.40;;;;;;5072386;28;20446;-76
2023/12/27 09:32:31;;;;;;;2.93;2.50;;;15.10;64.30;;;;;;5072634;28;20453;-77
2023/12/27 09:35:00;;;;;;;2.50;2.00;;;15.20;64.40;;;;;;5063599;28;20493;-77
2023/12/27 09:37:28;;;;;;;3.23;2.50;;;15.20;64.40;;;;;;5064773;28;20889;-78
2023/12/27 09:39:57;;;;;;;2.57;2.33;;;15.20;64.50;;;;;;5071600;28;20514;-76
2023/12/27 09:42:25;;;;;;;4.77;2.10;;;15.20;64.40;;;;;;5060585;28;20499;-78
2023/12/27 09:44:53;;;;;;;2.50;2.30;;;15.20;64.50;;;;;;5062563;28;20497;-77
2023/12/27 09:47:23;;;;;;;3.87;2.43;;;15.20;64.40;;;;;;5058126;28;20465;-79
2023/12/27 09:49:54;;;;;;;2.70;2.07;;;15.20;64.50;;;;;;5058318;28;20538;-78
2023/12/27 09:52:22;;;;;;;2.23;2.03;;;15.30;64.60;;;;;;5060281;28;20465;-79
2023/12/27 09:54:50;;;;;;;3.67;2.50;;;15.30;64.80;;;;;;5063571;28;20461;-79
2023/12/27 09:57:19;;;;;;;2.53;2.33;;;15.30;64.50;;;;;;5073528;28;20484;-78
2023/12/27 09:59:47;;;;;;;2.87;2.20;;;15.30;64.50;;;;;;5060707;28;20450;-77
2023/12/27 10:02:18;;;;;;;3.07;2.77;;;15.30;64.60;;;;;;5064607;28;20461;-77
2023/12/27 10:04:53;;;;;;;2.80;2.60;;;15.40;64.60;;;;;;5061778;28;20446;-77
2023/12/27 10:07:22;;;;;;;2.73;2.23;;;15.30;64.50;;;;;;5052492;28;20500;-75
2023/12/27 10:09:50;;;;;;;2.23;2.07;;;15.30;64.70;;;;;;5051522;28;20435;-76
2023/12/27 10:12:20;;;;;;;3.90;2.50;;;15.40;65.00;;;;;;5063685;28;20606;-77
2023/12/27 10:14:49;;;;;;;2.50;2.30;;;15.40;64.90;;;;;;5054998;28;20477;-77
2023/12/27 10:17:17;;;;;;;4.03;2.20;;;15.40;64.90;;;;;;5063959;28;20474;-77
2023/12/27 10:19:45;;;;;;;4.67;2.17;;;15.40;65.00;;;;;;5072034;28;20527;-77
2023/12/27 10:22:15;;;;;;;3.40;2.13;;;15.40;65.00;;;;;;5072668;28;20442;-77
2023/12/27 10:24:43;;;;;;;2.37;2.07;;;15.40;65.10;;;;;;5073175;28;20450;-77
2023/12/27 10:27:12;;;;;;;2.10;2.00;;;15.40;65.10;;;;;;5072659;28;20461;-77
2023/12/27 10:29:48;;;;;;;4.00;2.40;;;15.40;65.10;;;;;;5062186;28;20496;-77
2023/12/27 10:32:16;;;;;;;2.23;2.03;;;15.40;65.10;;;;;;5058681;28;20979;-77
2023/12/27 10:34:44;;;;;;;3.73;2.30;;;15.50;65.20;;;;;;5060388;28;20540;-77
2023/12/27 10:37:14;;;;;;;2.40;2.20;;;15.50;65.40;;;;;;5056818;28;20509;-77
2023/12/27 10:39:44;;;;;;;3.10;2.00;;;15.50;65.20;;;;;;5063776;28;20961;-77
2023/12/27 10:42:13;;;;;;;2.47;2.07;;;15.50;65.20;;;;;;5060636;28;20446;-77
2023/12/27 10:44:42;;;;;;;2.83;1.83;;;15.50;65.40;;;;;;5059983;28;20451;-77
2023/12/27 10:47:12;;;;;;;2.90;2.00;;;15.40;65.30;;;;;;5061032;28;20457;-77
2023/12/27 10:49:42;;;;;;;4.20;2.40;;;15.50;65.40;;;;;;5068079;28;20543;-76
2023/12/27 10:52:10;;;;;;;2.90;1.83;;;15.50;65.40;;;;;;5068754;28;20451;-77
2023/12/27 10:54:40;;;;;;;2.67;2.10;;;15.50;65.60;;;;;;5068452;28;20442;-77
2023/12/27 10:57:08;;;;;;;6.53;2.30;;;15.50;65.20;;;;;;5055971;28;20900;-76
2023/12/27 10:59:36;;;;;;;4.83;2.23;;;15.50;65.50;;;;;;5071075;28;20522;-79
2023/12/27 11:02:06;;;;;;;2.87;2.03;;;15.50;65.50;;;;;;5063747;28;20458;-77
2023/12/27 11:04:34;;;;;;;2.90;1.87;;;15.50;65.60;;;;;;5074361;28;20551;-77
2023/12/27 11:07:02;;;;;;;2.27;2.07;;;15.50;65.80;;;;;;5073727;28;20472;-77
2023/12/27 11:09:30;;;;;;;3.63;2.00;;;15.60;65.80;;;;;;5068447;28;20438;-77
2023/12/27 11:12:01;;;;;;;2.20;2.03;;;15.60;65.80;;;;;;5058593;28;20451;-77
2023/12/27 11:14:29;;;;;;;2.70;2.00;;;15.60;65.80;;;;;;5056784;28;20441;-76
2023/12/27 11:16:57;;;;;;;1.77;1.67;;;15.60;65.80;;;;;;5055524;28;20561;-75
2023/12/27 11:19:25;;;;;;;2.23;2.03;;;15.60;65.80;;;;;;5054464;28;20493;-76
2023/12/27 11:21:53;;;;;;;1.83;1.70;;;15.70;65.80;;;;;;5063878;28;20481;-76
2023/12/27 11:24:22;;;;;;;2.10;1.90;;;15.70;65.60;;;;;;5064443;28;20480;-76
2023/12/27 11:27:00;;;;;;;3.43;2.00;;;15.70;65.80;;;;;;5061861;28;20453;-76
2023/12/27 11:29:29;;;;;;;16.53;3.00;;;15.70;65.70;;;;;;5071106;28;20458;-77
2023/12/27 11:31:59;;;;;;;14.10;3.30;;;15.00;59.40;;;;;;5069545;28;20461;-78
2023/12/27 11:34:27;;;;;;;9.67;2.90;;;14.20;60.30;;;;;;5066202;28;20446;-78
2023/12/27 11:36:56;;;;;;;12.90;3.97;;;13.90;60.70;;;;;;5070455;28;20476;-75
2023/12/27 11:39:27;;;;;;;11.27;3.03;;;13.80;59.60;;;;;;5070047;28;20500;-76
2023/12/27 11:42:09;;;;;;;8.90;2.97;;;13.20;59.30;;;;;;5077373;28;20455;-77
2023/12/27 11:45:08;;;;;;;10.70;3.20;;;13.20;59.20;;;;;;5013883;28;20432;-78
2023/12/27 11:47:49;;;;;;;10.63;3.40;;;13.00;58.80;;;;;;5061167;28;20463;-79
2023/12/27 11:50:30;;;;;;;7.70;3.43;;;12.90;59.30;;;;;;5063906;28;20438;-79
2023/12/27 11:53:01;;;;;;;10.13;3.40;;;12.90;59.30;;;;;;5069189;28;20454;-77
2023/12/27 11:55:42;;;;;;;12.63;3.33;;;13.30;61.50;;;;;;5073744;28;20473;-77
2023/12/27 11:58:12;;;;;;;16.50;3.60;;;13.80;59.60;;;;;;5071443;28;20923;-77
2023/12/27 12:00:40;;;;;;;7.07;3.33;;;14.00;59.30;;;;;;5074815;28;20488;-78
2023/12/27 12:03:13;;;;;;;12.47;3.93;;;14.30;58.80;;;;;;5071380;28;20448;-77
2023/12/27 12:05:49;;;;;;;13.40;4.00;;;14.30;57.70;;;;;;5059808;28;20454;-77
2023/12/27 12:08:21;;;;;;;11.57;3.93;;;14.30;58.00;;;;;;5058576;28;20470;-77
2023/12/27 12:11:05;;;;;;;16.17;6.63;;;14.40;57.90;;;;;;5064216;28;20565;-77
2023/12/27 12:13:34;;;;;;;9.43;4.40;;;14.40;57.50;;;;;;5073581;28;20410;-76
2023/12/27 12:16:02;;;;;;;11.20;4.97;;;14.40;57.10;;;;;;5064354;28;20473;-77
2023/12/27 12:18:30;;;;;;;13.20;4.50;;;14.40;57.20;;;;;;5069659;28;20474;-77
2023/12/27 12:20:58;;;;;;;10.70;4.73;;;14.40;57.50;;;;;;5059523;28;20458;-75
2023/12/27 12:23:29;;;;;;;12.80;5.03;;;14.40;58.00;;;;;;5058202;28;20438;-76
2023/12/27 12:25:57;;;;;;;13.30;4.83;;;14.50;57.50;;;;;;5069909;28;20509;-76
2023/12/27 12:28:25;;;;;;;15.53;4.70;;;14.50;57.80;;;;;;5074790;28;20462;-76
2023/12/27 12:30:57;;;;;;;10.53;4.57;;;14.50;57.70;;;;;;5059448;28;20489;-78
2023/12/27 12:33:29;;;;;;;8.13;4.87;;;14.50;57.70;;;;;;5069259;28;20464;-79
2023/12/27 12:36:07;;;;;;;17.30;6.90;;;14.50;57.60;;;;;;5082108;28;20437;-78
2023/12/27 12:38:39;;;;;;;9.23;4.70;;;14.50;57.50;;;;;;5065500;28;20474;-76
2023/12/27 12:41:07;;;;;;;18.40;5.20;;;14.50;57.50;;;;;;5061420;28;20507;-75
2023/12/27 12:43:36;;;;;;;13.20;5.23;;;14.50;58.00;;;;;;5071732;28;20487;-77
2023/12/27 12:46:07;;;;;;;9.57;5.00;;;14.50;57.40;;;;;;5063900;28;20438;-76
2023/12/27 12:48:36;;;;;;;15.77;5.77;;;14.40;57.50;;;;;;5051882;28;20457;-76
2023/12/27 12:51:11;;;;;;;19.10;5.20;;;14.40;58.30;;;;;;5054495;28;20518;-77